sensor_id;sensor_type;location;lat;lon;timestamp;P1;durP1;ratioP1;P2;durP2;ratioP2
42018;SDS011;27703;51.980;5.848;2023-07-02T00:00:58;4.85;;;0.93;;
42018;SDS011;27703;51.980;5.848;2023-07-02T00:03:24;3.03;;;1.17;;
42018;SDS011;27703;51.980;5.848;2023-07-02T00:05:50;3.80;;;1.35;;
42018;SDS011;27703;51.980;5.848;2023-07-02T00:08:19;5.60;;;1.60;;
42018;SDS011;27703;51.980;5.848;2023-07-02T00:10:46;4.03;;;1.27;;
42018;SDS011;27703;51.980;5.848;2023-07-02T00:13:12;3.80;;;1.52;;
42018;SDS011;27703;51.980;5.848;2023-07-02T00:15:37;9.90;;;2.42;;
42018;SDS011;27703;51.980;5.848;2023-07-02T00:18:03;8.80;;;2.78;;
42018;SDS011;27703;51.980;5.848;2023-07-02T00:20:29;7.50;;;2.78;;
42018;SDS011;27703;51.980;5.848;2023-07-02T00:22:55;11.55;;;3.67;;
42018;SDS011;27703;51.980;5.848;2023-07-02T00:25:21;10.63;;;3.25;;
42018;SDS011;27703;51.980;5.848;2023-07-02T00:27:47;10.73;;;3.83;;
42018;SDS011;27703;51.980;5.848;2023-07-02T00:30:12;10.57;;;3.90;;
42018;SDS011;27703;51.980;5.848;2023-07-02T00:32:38;13.75;;;3.72;;
42018;SDS011;27703;51.980;5.848;2023-07-02T00:35:04;9.13;;;3.10;;
42018;SDS011;27703;51.980;5.848;2023-07-02T00:37:30;11.82;;;4.10;;
42018;SDS011;27703;51.980;5.848;2023-07-02T00:39:55;16.27;;;4.80;;
42018;SDS011;27703;51.980;5.848;2023-07-02T00:42:21;10.80;;;4.25;;
42018;SDS011;27703;51.980;5.848;2023-07-02T00:44:48;13.65;;;3.63;;
42018;SDS011;27703;51.980;5.848;2023-07-02T00:47:14;8.82;;;3.53;;
42018;SDS011;27703;51.980;5.848;2023-07-02T00:49:41;8.27;;;3.70;;
42018;SDS011;27703;51.980;5.848;2023-07-02T00:52:06;8.00;;;2.88;;
42018;SDS011;27703;51.980;5.848;2023-07-02T00:54:32;7.72;;;2.92;;
42018;SDS011;27703;51.980;5.848;2023-07-02T00:56:58;6.50;;;2.13;;
42018;SDS011;27703;51.980;5.848;2023-07-02T00:59:29;6.20;;;2.40;;
42018;SDS011;27703;51.980;5.848;2023-07-02T01:01:55;7.80;;;2.20;;
42018;SDS011;27703;51.980;5.848;2023-07-02T01:04:21;7.47;;;2.38;;
42018;SDS011;27703;51.980;5.848;2023-07-02T01:06:52;4.95;;;1.98;;
42018;SDS011;27703;51.980;5.848;2023-07-02T01:09:22;5.85;;;2.13;;
42018;SDS011;27703;51.980;5.848;2023-07-02T01:11:51;7.72;;;2.75;;
42018;SDS011;27703;51.980;5.848;2023-07-02T01:14:56;6.88;;;2.38;;
42018;SDS011;27703;51.980;5.848;2023-07-02T01:17:16;10.32;;;2.72;;
42018;SDS011;27703;51.980;5.848;2023-07-02T01:19:50;9.18;;;2.75;;
42018;SDS011;27703;51.980;5.848;2023-07-02T01:22:19;6.07;;;2.70;;
42018;SDS011;27703;51.980;5.848;2023-07-02T01:24:48;9.23;;;2.90;;
42018;SDS011;27703;51.980;5.848;2023-07-02T01:27:15;7.43;;;2.47;;
42018;SDS011;27703;51.980;5.848;2023-07-02T01:29:41;7.40;;;2.58;;
42018;SDS011;27703;51.980;5.848;2023-07-02T01:32:09;9.25;;;2.78;;
42018;SDS011;27703;51.980;5.848;2023-07-02T01:34:35;8.43;;;2.95;;
42018;SDS011;27703;51.980;5.848;2023-07-02T01:37:01;9.45;;;2.67;;
42018;SDS011;27703;51.980;5.848;2023-07-02T01:39:27;8.55;;;2.63;;
42018;SDS011;27703;51.980;5.848;2023-07-02T01:41:53;6.18;;;2.05;;
42018;SDS011;27703;51.980;5.848;2023-07-02T01:44:20;6.85;;;2.63;;
42018;SDS011;27703;51.980;5.848;2023-07-02T01:46:47;7.82;;;3.25;;
42018;SDS011;27703;51.980;5.848;2023-07-02T01:49:14;8.02;;;3.00;;
42018;SDS011;27703;51.980;5.848;2023-07-02T01:51:40;6.70;;;2.50;;
42018;SDS011;27703;51.980;5.848;2023-07-02T01:54:16;7.75;;;3.33;;
42018;SDS011;27703;51.980;5.848;2023-07-02T01:56:42;10.30;;;3.40;;
42018;SDS011;27703;51.980;5.848;2023-07-02T01:59:07;9.95;;;3.90;;
42018;SDS011;27703;51.980;5.848;2023-07-02T02:01:33;9.65;;;3.78;;
42018;SDS011;27703;51.980;5.848;2023-07-02T02:03:59;6.05;;;2.92;;
42018;SDS011;27703;51.980;5.848;2023-07-02T02:06:25;8.07;;;3.95;;
42018;SDS011;27703;51.980;5.848;2023-07-02T02:08:50;6.63;;;3.38;;
42018;SDS011;27703;51.980;5.848;2023-07-02T02:11:16;7.05;;;3.42;;
42018;SDS011;27703;51.980;5.848;2023-07-02T02:13:41;8.73;;;3.22;;
42018;SDS011;27703;51.980;5.848;2023-07-02T02:16:07;6.63;;;3.72;;
42018;SDS011;27703;51.980;5.848;2023-07-02T02:18:32;11.52;;;3.92;;
42018;SDS011;27703;51.980;5.848;2023-07-02T02:20:58;11.98;;;4.43;;
42018;SDS011;27703;51.980;5.848;2023-07-02T02:23:23;10.88;;;4.15;;
42018;SDS011;27703;51.980;5.848;2023-07-02T02:25:49;8.75;;;3.13;;
42018;SDS011;27703;51.980;5.848;2023-07-02T02:28:14;7.65;;;2.70;;
42018;SDS011;27703;51.980;5.848;2023-07-02T02:30:40;9.32;;;3.72;;
42018;SDS011;27703;51.980;5.848;2023-07-02T02:33:06;9.02;;;3.10;;
42018;SDS011;27703;51.980;5.848;2023-07-02T02:35:31;9.18;;;3.58;;
42018;SDS011;27703;51.980;5.848;2023-07-02T02:37:57;6.18;;;3.58;;
42018;SDS011;27703;51.980;5.848;2023-07-02T02:40:22;8.57;;;2.20;;
42018;SDS011;27703;51.980;5.848;2023-07-02T02:42:48;8.80;;;3.03;;
42018;SDS011;27703;51.980;5.848;2023-07-02T02:45:13;9.27;;;3.22;;
42018;SDS011;27703;51.980;5.848;2023-07-02T02:47:39;8.98;;;3.63;;
42018;SDS011;27703;51.980;5.848;2023-07-02T02:50:05;9.88;;;3.67;;
42018;SDS011;27703;51.980;5.848;2023-07-02T02:52:31;8.43;;;3.45;;
42018;SDS011;27703;51.980;5.848;2023-07-02T02:54:56;8.68;;;3.70;;
42018;SDS011;27703;51.980;5.848;2023-07-02T02:57:22;9.10;;;3.47;;
42018;SDS011;27703;51.980;5.848;2023-07-02T02:59:48;8.02;;;3.42;;
42018;SDS011;27703;51.980;5.848;2023-07-02T03:02:13;9.05;;;3.20;;
42018;SDS011;27703;51.980;5.848;2023-07-02T03:04:39;6.72;;;2.72;;
42018;SDS011;27703;51.980;5.848;2023-07-02T03:07:06;7.32;;;2.72;;
42018;SDS011;27703;51.980;5.848;2023-07-02T03:09:32;6.05;;;2.90;;
42018;SDS011;27703;51.980;5.848;2023-07-02T03:11:58;11.25;;;3.20;;
42018;SDS011;27703;51.980;5.848;2023-07-02T03:14:24;8.10;;;2.88;;
42018;SDS011;27703;51.980;5.848;2023-07-02T03:16:49;5.80;;;2.60;;
42018;SDS011;27703;51.980;5.848;2023-07-02T03:19:15;4.50;;;2.17;;
42018;SDS011;27703;51.980;5.848;2023-07-02T03:21:42;8.65;;;3.88;;
42018;SDS011;27703;51.980;5.848;2023-07-02T03:24:10;7.85;;;3.45;;
42018;SDS011;27703;51.980;5.848;2023-07-02T03:26:39;6.53;;;2.92;;
42018;SDS011;27703;51.980;5.848;2023-07-02T03:29:06;10.38;;;3.30;;
42018;SDS011;27703;51.980;5.848;2023-07-02T03:31:31;7.70;;;3.10;;
42018;SDS011;27703;51.980;5.848;2023-07-02T03:33:57;6.43;;;2.97;;
42018;SDS011;27703;51.980;5.848;2023-07-02T03:36:22;11.05;;;3.15;;
42018;SDS011;27703;51.980;5.848;2023-07-02T03:38:48;6.45;;;3.15;;
42018;SDS011;27703;51.980;5.848;2023-07-02T03:41:13;5.20;;;2.97;;
42018;SDS011;27703;51.980;5.848;2023-07-02T03:43:39;7.57;;;2.92;;
42018;SDS011;27703;51.980;5.848;2023-07-02T03:46:05;7.43;;;3.35;;
42018;SDS011;27703;51.980;5.848;2023-07-02T03:48:30;8.23;;;3.20;;
42018;SDS011;27703;51.980;5.848;2023-07-02T03:50:56;8.13;;;3.50;;
42018;SDS011;27703;51.980;5.848;2023-07-02T03:53:21;9.60;;;3.20;;
42018;SDS011;27703;51.980;5.848;2023-07-02T03:55:47;7.53;;;2.88;;
42018;SDS011;27703;51.980;5.848;2023-07-02T03:58:13;7.32;;;3.50;;
42018;SDS011;27703;51.980;5.848;2023-07-02T04:00:38;12.85;;;4.28;;
42018;SDS011;27703;51.980;5.848;2023-07-02T04:03:05;8.70;;;4.00;;
42018;SDS011;27703;51.980;5.848;2023-07-02T04:05:30;7.90;;;3.38;;
42018;SDS011;27703;51.980;5.848;2023-07-02T04:07:56;10.57;;;3.88;;
42018;SDS011;27703;51.980;5.848;2023-07-02T04:10:21;9.63;;;3.85;;
42018;SDS011;27703;51.980;5.848;2023-07-02T04:12:47;9.68;;;4.03;;
42018;SDS011;27703;51.980;5.848;2023-07-02T04:15:12;9.95;;;3.50;;
42018;SDS011;27703;51.980;5.848;2023-07-02T04:17:38;10.35;;;3.80;;
42018;SDS011;27703;51.980;5.848;2023-07-02T04:20:04;9.23;;;3.22;;
42018;SDS011;27703;51.980;5.848;2023-07-02T04:22:31;7.93;;;3.80;;
42018;SDS011;27703;51.980;5.848;2023-07-02T04:24:57;8.70;;;3.50;;
42018;SDS011;27703;51.980;5.848;2023-07-02T04:27:22;12.65;;;3.90;;
42018;SDS011;27703;51.980;5.848;2023-07-02T04:29:48;12.02;;;4.05;;
42018;SDS011;27703;51.980;5.848;2023-07-02T04:32:14;8.05;;;4.47;;
42018;SDS011;27703;51.980;5.848;2023-07-02T04:34:40;8.52;;;3.58;;
42018;SDS011;27703;51.980;5.848;2023-07-02T04:37:06;9.88;;;3.70;;
42018;SDS011;27703;51.980;5.848;2023-07-02T04:39:34;8.57;;;3.72;;
42018;SDS011;27703;51.980;5.848;2023-07-02T04:41:59;8.48;;;4.13;;
42018;SDS011;27703;51.980;5.848;2023-07-02T04:44:25;9.25;;;3.95;;
42018;SDS011;27703;51.980;5.848;2023-07-02T04:49:22;13.23;;;3.85;;
42018;SDS011;27703;51.980;5.848;2023-07-02T04:51:48;12.82;;;5.03;;
42018;SDS011;27703;51.980;5.848;2023-07-02T04:54:13;9.32;;;3.78;;
42018;SDS011;27703;51.980;5.848;2023-07-02T04:56:39;8.68;;;4.00;;
42018;SDS011;27703;51.980;5.848;2023-07-02T04:59:04;8.85;;;4.15;;
42018;SDS011;27703;51.980;5.848;2023-07-02T05:01:30;16.55;;;4.18;;
42018;SDS011;27703;51.980;5.848;2023-07-02T05:03:55;12.57;;;4.47;;
42018;SDS011;27703;51.980;5.848;2023-07-02T05:06:21;13.10;;;4.80;;
42018;SDS011;27703;51.980;5.848;2023-07-02T05:08:47;11.98;;;4.78;;
42018;SDS011;27703;51.980;5.848;2023-07-02T05:11:12;15.10;;;4.75;;
42018;SDS011;27703;51.980;5.848;2023-07-02T05:13:38;14.30;;;4.93;;
42018;SDS011;27703;51.980;5.848;2023-07-02T05:16:03;13.70;;;6.13;;
42018;SDS011;27703;51.980;5.848;2023-07-02T05:18:29;16.02;;;4.80;;
42018;SDS011;27703;51.980;5.848;2023-07-02T05:20:54;11.30;;;4.55;;
42018;SDS011;27703;51.980;5.848;2023-07-02T05:23:20;15.20;;;5.50;;
42018;SDS011;27703;51.980;5.848;2023-07-02T05:25:46;15.63;;;5.50;;
42018;SDS011;27703;51.980;5.848;2023-07-02T05:28:11;13.93;;;4.95;;
42018;SDS011;27703;51.980;5.848;2023-07-02T05:30:37;12.15;;;4.70;;
42018;SDS011;27703;51.980;5.848;2023-07-02T05:33:02;14.77;;;5.05;;
42018;SDS011;27703;51.980;5.848;2023-07-02T05:35:28;15.80;;;5.13;;
42018;SDS011;27703;51.980;5.848;2023-07-02T05:37:53;19.83;;;6.18;;
42018;SDS011;27703;51.980;5.848;2023-07-02T05:40:19;18.00;;;6.50;;
42018;SDS011;27703;51.980;5.848;2023-07-02T05:42:44;15.85;;;6.32;;
42018;SDS011;27703;51.980;5.848;2023-07-02T05:45:10;19.00;;;4.93;;
42018;SDS011;27703;51.980;5.848;2023-07-02T05:47:36;17.20;;;6.07;;
42018;SDS011;27703;51.980;5.848;2023-07-02T05:50:01;15.60;;;5.07;;
42018;SDS011;27703;51.980;5.848;2023-07-02T05:52:27;14.50;;;5.25;;
42018;SDS011;27703;51.980;5.848;2023-07-02T05:54:52;13.63;;;4.93;;
42018;SDS011;27703;51.980;5.848;2023-07-02T05:57:18;9.68;;;3.75;;
42018;SDS011;27703;51.980;5.848;2023-07-02T05:59:44;15.20;;;5.47;;
42018;SDS011;27703;51.980;5.848;2023-07-02T06:02:09;13.35;;;4.95;;
42018;SDS011;27703;51.980;5.848;2023-07-02T06:04:35;20.83;;;6.13;;
42018;SDS011;27703;51.980;5.848;2023-07-02T06:07:01;15.55;;;5.75;;
42018;SDS011;27703;51.980;5.848;2023-07-02T06:09:26;19.17;;;6.10;;
42018;SDS011;27703;51.980;5.848;2023-07-02T06:11:52;15.20;;;4.15;;
42018;SDS011;27703;51.980;5.848;2023-07-02T06:14:17;13.15;;;4.63;;
42018;SDS011;27703;51.980;5.848;2023-07-02T06:16:43;15.52;;;5.38;;
42018;SDS011;27703;51.980;5.848;2023-07-02T06:19:08;19.42;;;5.97;;
42018;SDS011;27703;51.980;5.848;2023-07-02T06:21:34;17.55;;;5.38;;
42018;SDS011;27703;51.980;5.848;2023-07-02T06:24:01;17.23;;;4.70;;
42018;SDS011;27703;51.980;5.848;2023-07-02T06:26:27;15.60;;;5.72;;
42018;SDS011;27703;51.980;5.848;2023-07-02T06:28:52;16.77;;;5.93;;
42018;SDS011;27703;51.980;5.848;2023-07-02T06:31:18;14.90;;;4.78;;
42018;SDS011;27703;51.980;5.848;2023-07-02T06:33:43;13.95;;;4.25;;
42018;SDS011;27703;51.980;5.848;2023-07-02T06:36:09;12.50;;;4.35;;
42018;SDS011;27703;51.980;5.848;2023-07-02T06:38:35;13.48;;;4.57;;
42018;SDS011;27703;51.980;5.848;2023-07-02T06:41:01;17.83;;;5.60;;
42018;SDS011;27703;51.980;5.848;2023-07-02T06:43:28;16.48;;;4.53;;
42018;SDS011;27703;51.980;5.848;2023-07-02T06:45:54;19.55;;;4.72;;
42018;SDS011;27703;51.980;5.848;2023-07-02T06:48:19;17.48;;;5.97;;
42018;SDS011;27703;51.980;5.848;2023-07-02T06:50:46;14.73;;;4.57;;
42018;SDS011;27703;51.980;5.848;2023-07-02T06:53:12;12.88;;;4.60;;
42018;SDS011;27703;51.980;5.848;2023-07-02T06:55:38;13.60;;;4.88;;
42018;SDS011;27703;51.980;5.848;2023-07-02T06:58:04;12.90;;;3.75;;
42018;SDS011;27703;51.980;5.848;2023-07-02T07:00:31;12.32;;;4.55;;
42018;SDS011;27703;51.980;5.848;2023-07-02T07:03:03;11.02;;;4.22;;
42018;SDS011;27703;51.980;5.848;2023-07-02T07:05:32;17.63;;;4.38;;
42018;SDS011;27703;51.980;5.848;2023-07-02T07:08:01;13.48;;;4.45;;
42018;SDS011;27703;51.980;5.848;2023-07-02T07:10:27;12.98;;;4.30;;
42018;SDS011;27703;51.980;5.848;2023-07-02T07:12:53;9.73;;;3.53;;
42018;SDS011;27703;51.980;5.848;2023-07-02T07:15:18;13.93;;;5.13;;
42018;SDS011;27703;51.980;5.848;2023-07-02T07:17:44;16.40;;;4.90;;
42018;SDS011;27703;51.980;5.848;2023-07-02T07:20:10;13.82;;;4.80;;
42018;SDS011;27703;51.980;5.848;2023-07-02T07:22:35;12.25;;;4.03;;
42018;SDS011;27703;51.980;5.848;2023-07-02T07:25:01;13.20;;;3.72;;
42018;SDS011;27703;51.980;5.848;2023-07-02T07:27:27;15.13;;;3.58;;
42018;SDS011;27703;51.980;5.848;2023-07-02T07:29:53;8.63;;;3.25;;
42018;SDS011;27703;51.980;5.848;2023-07-02T07:32:20;10.68;;;3.72;;
42018;SDS011;27703;51.980;5.848;2023-07-02T07:34:45;15.32;;;4.15;;
42018;SDS011;27703;51.980;5.848;2023-07-02T07:37:11;15.40;;;3.97;;
42018;SDS011;27703;51.980;5.848;2023-07-02T07:39:37;11.15;;;3.42;;
42018;SDS011;27703;51.980;5.848;2023-07-02T07:42:02;11.27;;;3.60;;
42018;SDS011;27703;51.980;5.848;2023-07-02T07:44:28;14.07;;;3.75;;
42018;SDS011;27703;51.980;5.848;2023-07-02T07:46:56;11.93;;;4.13;;
42018;SDS011;27703;51.980;5.848;2023-07-02T07:49:22;15.90;;;4.93;;
42018;SDS011;27703;51.980;5.848;2023-07-02T07:51:48;12.18;;;3.28;;
42018;SDS011;27703;51.980;5.848;2023-07-02T07:54:14;9.32;;;3.05;;
42018;SDS011;27703;51.980;5.848;2023-07-02T07:56:39;18.02;;;4.68;;
42018;SDS011;27703;51.980;5.848;2023-07-02T07:59:05;14.90;;;4.05;;
42018;SDS011;27703;51.980;5.848;2023-07-02T08:01:30;15.85;;;4.65;;
42018;SDS011;27703;51.980;5.848;2023-07-02T08:03:56;11.93;;;3.90;;
42018;SDS011;27703;51.980;5.848;2023-07-02T08:06:22;9.90;;;3.75;;
42018;SDS011;27703;51.980;5.848;2023-07-02T08:08:47;11.73;;;3.08;;
42018;SDS011;27703;51.980;5.848;2023-07-02T08:11:13;13.32;;;3.80;;
42018;SDS011;27703;51.980;5.848;2023-07-02T08:13:38;13.05;;;3.20;;
42018;SDS011;27703;51.980;5.848;2023-07-02T08:16:04;11.73;;;3.38;;
42018;SDS011;27703;51.980;5.848;2023-07-02T08:18:30;9.98;;;3.28;;
42018;SDS011;27703;51.980;5.848;2023-07-02T08:20:55;7.95;;;2.97;;
42018;SDS011;27703;51.980;5.848;2023-07-02T08:23:21;8.93;;;3.25;;
42018;SDS011;27703;51.980;5.848;2023-07-02T08:25:47;7.43;;;2.88;;
42018;SDS011;27703;51.980;5.848;2023-07-02T08:28:12;13.23;;;3.42;;
42018;SDS011;27703;51.980;5.848;2023-07-02T08:30:38;10.02;;;3.22;;
42018;SDS011;27703;51.980;5.848;2023-07-02T08:33:03;10.52;;;3.22;;
42018;SDS011;27703;51.980;5.848;2023-07-02T08:35:29;7.30;;;2.97;;
42018;SDS011;27703;51.980;5.848;2023-07-02T08:37:54;14.43;;;3.97;;
42018;SDS011;27703;51.980;5.848;2023-07-02T08:40:21;8.55;;;3.30;;
42018;SDS011;27703;51.980;5.848;2023-07-02T08:42:47;8.50;;;2.58;;
42018;SDS011;27703;51.980;5.848;2023-07-02T08:45:14;6.43;;;2.88;;
42018;SDS011;27703;51.980;5.848;2023-07-02T08:47:41;5.35;;;2.47;;
42018;SDS011;27703;51.980;5.848;2023-07-02T08:50:08;9.52;;;2.83;;
42018;SDS011;27703;51.980;5.848;2023-07-02T08:52:34;11.80;;;3.35;;
42018;SDS011;27703;51.980;5.848;2023-07-02T08:54:59;7.70;;;2.83;;
42018;SDS011;27703;51.980;5.848;2023-07-02T08:57:25;4.75;;;2.67;;
42018;SDS011;27703;51.980;5.848;2023-07-02T08:59:50;9.93;;;2.97;;
42018;SDS011;27703;51.980;5.848;2023-07-02T09:02:16;7.05;;;3.00;;
42018;SDS011;27703;51.980;5.848;2023-07-02T09:04:42;8.55;;;2.58;;
42018;SDS011;27703;51.980;5.848;2023-07-02T09:07:09;13.02;;;3.00;;
42018;SDS011;27703;51.980;5.848;2023-07-02T09:09:45;9.57;;;3.28;;
42018;SDS011;27703;51.980;5.848;2023-07-02T09:12:29;10.23;;;2.65;;
42018;SDS011;27703;51.980;5.848;2023-07-02T09:15:00;8.30;;;2.83;;
42018;SDS011;27703;51.980;5.848;2023-07-02T09:17:29;9.48;;;3.10;;
42018;SDS011;27703;51.980;5.848;2023-07-02T09:19:56;8.70;;;2.53;;
42018;SDS011;27703;51.980;5.848;2023-07-02T09:22:25;7.07;;;2.47;;
42018;SDS011;27703;51.980;5.848;2023-07-02T09:24:54;10.95;;;3.85;;
42018;SDS011;27703;51.980;5.848;2023-07-02T09:27:33;10.52;;;3.15;;
42018;SDS011;27703;51.980;5.848;2023-07-02T09:30:05;8.45;;;3.38;;
42018;SDS011;27703;51.980;5.848;2023-07-02T09:32:32;11.05;;;2.75;;
42018;SDS011;27703;51.980;5.848;2023-07-02T09:34:58;5.00;;;1.88;;
42018;SDS011;27703;51.980;5.848;2023-07-02T09:37:23;7.00;;;2.35;;
42018;SDS011;27703;51.980;5.848;2023-07-02T09:39:50;3.35;;;1.38;;
42018;SDS011;27703;51.980;5.848;2023-07-02T09:42:19;5.47;;;1.85;;
42018;SDS011;27703;51.980;5.848;2023-07-02T09:44:46;6.22;;;2.17;;
42018;SDS011;27703;51.980;5.848;2023-07-02T09:47:12;5.85;;;1.77;;
42018;SDS011;27703;51.980;5.848;2023-07-02T09:49:41;4.22;;;1.30;;
42018;SDS011;27703;51.980;5.848;2023-07-02T09:52:10;5.32;;;1.75;;
42018;SDS011;27703;51.980;5.848;2023-07-02T09:54:37;5.30;;;1.80;;
42018;SDS011;27703;51.980;5.848;2023-07-02T09:57:03;7.20;;;1.63;;
42018;SDS011;27703;51.980;5.848;2023-07-02T09:59:31;4.60;;;1.92;;
42018;SDS011;27703;51.980;5.848;2023-07-02T10:01:56;6.38;;;1.30;;
42018;SDS011;27703;51.980;5.848;2023-07-02T10:04:23;5.18;;;1.33;;
42018;SDS011;27703;51.980;5.848;2023-07-02T10:06:52;3.75;;;1.25;;
42018;SDS011;27703;51.980;5.848;2023-07-02T10:09:20;6.38;;;1.73;;
42018;SDS011;27703;51.980;5.848;2023-07-02T10:11:47;7.43;;;1.20;;
42018;SDS011;27703;51.980;5.848;2023-07-02T10:14:13;5.18;;;1.60;;
42018;SDS011;27703;51.980;5.848;2023-07-02T10:16:48;9.20;;;1.83;;
42018;SDS011;27703;51.980;5.848;2023-07-02T10:19:17;5.15;;;1.60;;
42018;SDS011;27703;51.980;5.848;2023-07-02T10:21:44;4.45;;;1.20;;
42018;SDS011;27703;51.980;5.848;2023-07-02T10:27:00;6.72;;;1.58;;
42018;SDS011;27703;51.980;5.848;2023-07-02T10:29:28;3.72;;;1.27;;
42018;SDS011;27703;51.980;5.848;2023-07-02T10:31:54;6.60;;;1.00;;
42018;SDS011;27703;51.980;5.848;2023-07-02T10:34:34;3.28;;;1.45;;
42018;SDS011;27703;51.980;5.848;2023-07-02T10:37:03;5.13;;;1.52;;
42018;SDS011;27703;51.980;5.848;2023-07-02T10:39:30;4.00;;;1.40;;
42018;SDS011;27703;51.980;5.848;2023-07-02T10:42:06;2.28;;;1.23;;
42018;SDS011;27703;51.980;5.848;2023-07-02T10:44:33;3.40;;;1.65;;
42018;SDS011;27703;51.980;5.848;2023-07-02T10:46:58;2.75;;;0.93;;
42018;SDS011;27703;51.980;5.848;2023-07-02T10:49:31;6.43;;;2.00;;
42018;SDS011;27703;51.980;5.848;2023-07-02T10:52:00;4.63;;;1.73;;
42018;SDS011;27703;51.980;5.848;2023-07-02T10:54:38;5.15;;;1.25;;
42018;SDS011;27703;51.980;5.848;2023-07-02T10:57:13;4.43;;;1.42;;
42018;SDS011;27703;51.980;5.848;2023-07-02T10:59:45;4.85;;;1.55;;
42018;SDS011;27703;51.980;5.848;2023-07-02T11:02:11;6.60;;;1.58;;
42018;SDS011;27703;51.980;5.848;2023-07-02T11:04:37;6.88;;;1.83;;
42018;SDS011;27703;51.980;5.848;2023-07-02T11:07:03;6.97;;;1.55;;
42018;SDS011;27703;51.980;5.848;2023-07-02T11:09:29;3.75;;;1.33;;
42018;SDS011;27703;51.980;5.848;2023-07-02T11:11:59;6.72;;;1.05;;
42018;SDS011;27703;51.980;5.848;2023-07-02T11:14:29;9.20;;;1.98;;
42018;SDS011;27703;51.980;5.848;2023-07-02T11:16:56;4.85;;;1.48;;
42018;SDS011;27703;51.980;5.848;2023-07-02T11:19:27;3.97;;;1.48;;
42018;SDS011;27703;51.980;5.848;2023-07-02T11:21:53;6.07;;;1.48;;
42018;SDS011;27703;51.980;5.848;2023-07-02T11:24:27;5.38;;;1.40;;
42018;SDS011;27703;51.980;5.848;2023-07-02T11:26:59;4.32;;;0.80;;
42018;SDS011;27703;51.980;5.848;2023-07-02T11:29:28;5.00;;;1.05;;
42018;SDS011;27703;51.980;5.848;2023-07-02T11:32:07;7.10;;;1.17;;
42018;SDS011;27703;51.980;5.848;2023-07-02T11:34:34;4.63;;;0.82;;
42018;SDS011;27703;51.980;5.848;2023-07-02T11:37:00;2.60;;;1.20;;
42018;SDS011;27703;51.980;5.848;2023-07-02T11:39:25;5.35;;;1.25;;
42018;SDS011;27703;51.980;5.848;2023-07-02T11:41:52;5.60;;;1.52;;
42018;SDS011;27703;51.980;5.848;2023-07-02T11:44:17;5.75;;;1.15;;
42018;SDS011;27703;51.980;5.848;2023-07-02T11:46:43;2.80;;;0.80;;
42018;SDS011;27703;51.980;5.848;2023-07-02T11:49:09;2.80;;;0.80;;
42018;SDS011;27703;51.980;5.848;2023-07-02T11:51:35;4.72;;;1.00;;
42018;SDS011;27703;51.980;5.848;2023-07-02T11:54:04;2.97;;;1.02;;
42018;SDS011;27703;51.980;5.848;2023-07-02T11:56:31;3.35;;;1.10;;
42018;SDS011;27703;51.980;5.848;2023-07-02T11:58:56;3.28;;;0.90;;
42018;SDS011;27703;51.980;5.848;2023-07-02T12:01:22;5.07;;;0.75;;
42018;SDS011;27703;51.980;5.848;2023-07-02T12:03:48;3.42;;;1.02;;
42018;SDS011;27703;51.980;5.848;2023-07-02T12:06:13;5.20;;;1.30;;
42018;SDS011;27703;51.980;5.848;2023-07-02T12:08:39;4.60;;;0.70;;
42018;SDS011;27703;51.980;5.848;2023-07-02T12:11:04;4.53;;;0.80;;
42018;SDS011;27703;51.980;5.848;2023-07-02T12:13:30;5.82;;;1.10;;
42018;SDS011;27703;51.980;5.848;2023-07-02T12:15:56;3.90;;;1.45;;
42018;SDS011;27703;51.980;5.848;2023-07-02T12:18:21;5.07;;;1.27;;
42018;SDS011;27703;51.980;5.848;2023-07-02T12:20:47;3.03;;;0.93;;
42018;SDS011;27703;51.980;5.848;2023-07-02T12:23:12;4.28;;;1.58;;
42018;SDS011;27703;51.980;5.848;2023-07-02T12:25:38;4.57;;;1.10;;
42018;SDS011;27703;51.980;5.848;2023-07-02T12:28:04;3.25;;;0.98;;
42018;SDS011;27703;51.980;5.848;2023-07-02T12:30:30;4.32;;;1.35;;
42018;SDS011;27703;51.980;5.848;2023-07-02T12:32:56;2.60;;;0.75;;
42018;SDS011;27703;51.980;5.848;2023-07-02T12:35:22;2.63;;;1.13;;
42018;SDS011;27703;51.980;5.848;2023-07-02T12:37:48;4.05;;;1.00;;
42018;SDS011;27703;51.980;5.848;2023-07-02T12:40:16;5.75;;;1.10;;
42018;SDS011;27703;51.980;5.848;2023-07-02T12:42:42;3.28;;;1.02;;
42018;SDS011;27703;51.980;5.848;2023-07-02T12:45:09;2.85;;;0.88;;
42018;SDS011;27703;51.980;5.848;2023-07-02T12:47:36;4.30;;;1.15;;
42018;SDS011;27703;51.980;5.848;2023-07-02T12:50:02;5.95;;;1.35;;
42018;SDS011;27703;51.980;5.848;2023-07-02T12:52:29;6.00;;;1.00;;
42018;SDS011;27703;51.980;5.848;2023-07-02T12:54:54;4.18;;;1.30;;
42018;SDS011;27703;51.980;5.848;2023-07-02T12:57:20;3.47;;;1.15;;
42018;SDS011;27703;51.980;5.848;2023-07-02T12:59:46;2.75;;;0.93;;
42018;SDS011;27703;51.980;5.848;2023-07-02T13:02:11;4.63;;;0.90;;
42018;SDS011;27703;51.980;5.848;2023-07-02T13:04:37;4.75;;;1.25;;
42018;SDS011;27703;51.980;5.848;2023-07-02T13:07:03;4.28;;;1.15;;
42018;SDS011;27703;51.980;5.848;2023-07-02T13:09:29;3.83;;;1.23;;
42018;SDS011;27703;51.980;5.848;2023-07-02T13:11:55;4.18;;;1.38;;
42018;SDS011;27703;51.980;5.848;2023-07-02T13:14:20;3.38;;;1.00;;
42018;SDS011;27703;51.980;5.848;2023-07-02T13:16:46;3.70;;;0.80;;
42018;SDS011;27703;51.980;5.848;2023-07-02T13:19:12;4.70;;;0.80;;
42018;SDS011;27703;51.980;5.848;2023-07-02T13:21:38;2.80;;;0.95;;
42018;SDS011;27703;51.980;5.848;2023-07-02T13:24:03;5.03;;;1.02;;
42018;SDS011;27703;51.980;5.848;2023-07-02T13:26:29;6.03;;;1.20;;
42018;SDS011;27703;51.980;5.848;2023-07-02T13:28:55;5.15;;;1.60;;
42018;SDS011;27703;51.980;5.848;2023-07-02T13:31:21;3.65;;;0.80;;
42018;SDS011;27703;51.980;5.848;2023-07-02T13:33:46;3.33;;;1.05;;
42018;SDS011;27703;51.980;5.848;2023-07-02T13:36:12;5.03;;;1.67;;
42018;SDS011;27703;51.980;5.848;2023-07-02T13:38:38;4.28;;;1.40;;
42018;SDS011;27703;51.980;5.848;2023-07-02T13:41:03;5.63;;;1.52;;
42018;SDS011;27703;51.980;5.848;2023-07-02T13:43:29;4.95;;;1.20;;
42018;SDS011;27703;51.980;5.848;2023-07-02T13:45:55;5.90;;;1.00;;
42018;SDS011;27703;51.980;5.848;2023-07-02T13:48:20;3.88;;;1.10;;
42018;SDS011;27703;51.980;5.848;2023-07-02T13:50:46;4.07;;;1.25;;
42018;SDS011;27703;51.980;5.848;2023-07-02T13:53:11;3.60;;;1.10;;
42018;SDS011;27703;51.980;5.848;2023-07-02T13:55:37;5.25;;;0.90;;
42018;SDS011;27703;51.980;5.848;2023-07-02T13:58:03;7.93;;;1.40;;
42018;SDS011;27703;51.980;5.848;2023-07-02T14:00:28;4.50;;;0.90;;
42018;SDS011;27703;51.980;5.848;2023-07-02T14:02:54;7.30;;;1.33;;
42018;SDS011;27703;51.980;5.848;2023-07-02T14:05:20;6.57;;;1.02;;
42018;SDS011;27703;51.980;5.848;2023-07-02T14:07:46;5.90;;;1.50;;
42018;SDS011;27703;51.980;5.848;2023-07-02T14:10:13;6.20;;;1.40;;
42018;SDS011;27703;51.980;5.848;2023-07-02T14:12:39;4.18;;;1.42;;
42018;SDS011;27703;51.980;5.848;2023-07-02T14:15:06;6.78;;;1.23;;
42018;SDS011;27703;51.980;5.848;2023-07-02T14:17:32;7.45;;;1.33;;
42018;SDS011;27703;51.980;5.848;2023-07-02T14:19:58;5.45;;;1.27;;
42018;SDS011;27703;51.980;5.848;2023-07-02T14:22:23;3.05;;;1.08;;
42018;SDS011;27703;51.980;5.848;2023-07-02T14:24:49;4.22;;;1.30;;
42018;SDS011;27703;51.980;5.848;2023-07-02T14:27:15;4.78;;;1.25;;
42018;SDS011;27703;51.980;5.848;2023-07-02T14:29:40;6.18;;;1.30;;
42018;SDS011;27703;51.980;5.848;2023-07-02T14:32:06;5.47;;;1.30;;
42018;SDS011;27703;51.980;5.848;2023-07-02T14:34:32;4.90;;;1.02;;
42018;SDS011;27703;51.980;5.848;2023-07-02T14:36:58;2.72;;;1.10;;
42018;SDS011;27703;51.980;5.848;2023-07-02T14:39:24;3.40;;;1.38;;
42018;SDS011;27703;51.980;5.848;2023-07-02T14:41:50;4.28;;;1.33;;
42018;SDS011;27703;51.980;5.848;2023-07-02T14:44:15;6.32;;;1.40;;